Terminal Aerodrome Forecast
Issued by NWS

Home | Current Version | Previous Version | Text Only | Print | Product List | Glossary On
Versions: 1 2 3 4 5 6 7 8 9 10 11 12 13 14 15
000
FTUS46 KLOX 231700 RRA
TAFBUR
TAF
KBUR 231747Z 2318/2418 VRB05KT P6SM SCT200
     FM232100 18008KT P6SM SCT200
     FM240300 VRB03KT P6SM SCT200=

USA.gov is the U.S. government's official web portal to all federal, state and local government web resources and services.